createdAt,value
2023-03-15T00:00:56.573Z,98584.38
2023-03-15T00:02:58.721Z,98561.53
2023-03-15T00:05:01.367Z,98632.13
2023-03-15T00:07:04.915Z,98591.69
2023-03-15T00:09:07.099Z,98605.47
2023-03-15T00:11:09.869Z,98584.63
2023-03-15T00:13:13.322Z,98668.16
2023-03-15T00:15:15.923Z,98648.31
2023-03-15T00:17:18.015Z,98602.50
2023-03-15T00:19:21.269Z,98650.59
2023-03-15T00:21:24.478Z,98681.81
2023-03-15T00:23:27.110Z,98648.94
2023-03-15T00:25:30.058Z,98669.56
2023-03-15T00:27:32.385Z,98675.97
2023-03-15T00:29:34.926Z,98693.97
2023-03-15T00:31:37.279Z,98658.47
2023-03-15T00:33:39.746Z,98680.84
2023-03-15T00:35:43.796Z,98657.06
2023-03-15T00:37:46.867Z,98710.66
2023-03-15T00:39:49.304Z,98742.84
2023-03-15T00:41:57.238Z,98689.88
2023-03-15T00:44:00.367Z,98701.34
2023-03-15T00:46:04.754Z,98748.25
2023-03-15T00:48:07.167Z,98746.41
2023-03-15T00:50:10.525Z,98722.53
2023-03-15T00:52:13.069Z,98687.41
2023-03-15T00:54:15.410Z,98741.31
2023-03-15T00:56:21.863Z,98691.97
2023-03-15T00:58:26.459Z,98763.59
2023-03-15T01:00:29.799Z,98759.63
2023-03-15T01:02:32.115Z,98762.00
2023-03-15T01:04:36.114Z,98787.31
2023-03-15T01:06:38.699Z,98791.59
2023-03-15T01:08:41.557Z,98751.34
2023-03-15T01:10:43.869Z,98701.31
2023-03-15T01:12:46.285Z,98774.78
2023-03-15T01:14:48.616Z,98772.22
2023-03-15T01:16:51.805Z,98769.56
2023-03-15T01:18:54.528Z,98706.97
2023-03-15T01:20:57.419Z,98785.50
2023-03-15T01:23:00.179Z,98745.66
2023-03-15T01:25:02.732Z,98798.28
2023-03-15T01:27:05.121Z,98746.38
2023-03-15T01:29:08.302Z,98793.69
2023-03-15T01:31:26.505Z,98844.69
2023-03-15T01:33:29.551Z,98771.53
2023-03-15T01:35:32.324Z,98816.19
2023-03-15T01:37:35.442Z,98789.31
2023-03-15T01:39:38.167Z,98787.16
2023-03-15T01:41:40.401Z,98791.50
2023-03-15T01:43:47.583Z,98811.41
2023-03-15T01:45:59.968Z,98872.34
2023-03-15T01:48:03.485Z,98840.16
2023-03-15T01:50:11.903Z,98820.94
2023-03-15T01:52:21.705Z,98828.28
2023-03-15T01:54:40.205Z,98829.41
2023-03-15T01:56:48.266Z,98804.75
2023-03-15T01:58:53.097Z,98777.91
2023-03-15T02:00:56.740Z,98779.66
2023-03-15T02:03:15.092Z,98890.75
2023-03-15T02:05:29.171Z,98836.56
2023-03-15T02:07:35.194Z,98857.75
2023-03-15T02:09:42.711Z,98858.06
2023-03-15T02:11:45.424Z,98842.28
2023-03-15T02:13:49.822Z,98866.22
2023-03-15T02:15:53.745Z,98830.34
2023-03-15T02:18:11.618Z,98882.16
2023-03-15T02:20:27.772Z,98886.69
2023-03-15T02:22:59.490Z,98866.84
2023-03-15T02:25:08.265Z,98820.31
2023-03-15T02:27:11.264Z,98888.94
2023-03-15T02:29:14.673Z,98793.97
2023-03-15T02:31:18.280Z,98863.28
2023-03-15T02:33:34.410Z,98849.47
2023-03-15T02:35:36.777Z,98845.25
2023-03-15T02:37:38.987Z,98838.63
2023-03-15T02:39:41.185Z,98829.13
2023-03-15T02:41:48.505Z,98868.81
2023-03-15T02:43:54.511Z,98852.72
2023-03-15T02:45:57.057Z,98892.50
2023-03-15T02:48:02.142Z,98882.50
2023-03-15T02:50:05.548Z,98846.19
2023-03-15T02:52:08.699Z,98831.78
2023-03-15T02:54:11.080Z,98865.00
2023-03-15T02:56:14.579Z,98819.31
2023-03-15T02:58:24.044Z,98865.19
2023-03-15T03:00:26.482Z,98826.66
2023-03-15T03:02:29.339Z,98884.25
2023-03-15T03:04:31.758Z,98824.59
2023-03-15T03:06:37.066Z,98886.59
2023-03-15T03:08:41.258Z,98842.59
2023-03-15T03:10:50.357Z,98858.53
2023-03-15T03:12:53.817Z,98874.91
2023-03-15T03:15:05.024Z,98894.22
2023-03-15T03:17:07.438Z,98937.38
2023-03-15T03:19:12.968Z,98920.50
2023-03-15T03:21:17.295Z,98931.34
2023-03-15T03:23:19.836Z,98893.78
2023-03-15T03:25:27.484Z,98909.44
2023-03-15T03:27:30.351Z,98911.47
2023-03-15T03:29:35.221Z,98886.91
2023-03-15T03:31:39.767Z,98944.44
2023-03-15T03:33:42.266Z,98895.69
2023-03-15T03:35:44.788Z,98933.44
2023-03-15T03:37:47.702Z,98919.63
2023-03-15T03:39:58.754Z,98942.22
2023-03-15T03:42:01.427Z,98949.88
2023-03-15T03:44:04.430Z,98885.28
2023-03-15T03:46:07.515Z,98932.59
2023-03-15T03:48:14.333Z,98946.72
2023-03-15T03:50:16.848Z,98972.09
2023-03-15T03:52:19.466Z,98936.34
2023-03-15T03:54:23.882Z,98886.06
2023-03-15T03:56:26.235Z,98920.59
2023-03-15T03:58:28.490Z,98917.31
2023-03-15T04:00:36.338Z,98917.94
2023-03-15T04:02:42.839Z,98866.75
2023-03-15T04:04:45.993Z,98900.72
2023-03-15T04:06:54.780Z,98922.09
2023-03-15T04:09:04.454Z,98943.66
2023-03-15T04:11:17.857Z,98938.97
2023-03-15T04:13:26.555Z,98933.88
2023-03-15T04:15:32.020Z,98889.59
2023-03-15T04:17:34.905Z,98963.72
2023-03-15T04:19:37.440Z,98980.47
2023-03-15T04:21:47.697Z,98944.19
2023-03-15T04:24:18.949Z,98960.88
2023-03-15T04:26:58.104Z,98981.56
2023-03-15T04:29:19.328Z,98955.22
2023-03-15T04:31:50.908Z,98959.09
2023-03-15T04:34:03.106Z,98962.34
2023-03-15T04:36:31.252Z,99004.53
2023-03-15T04:39:07.763Z,98998.97
2023-03-15T04:41:28.538Z,98978.47
2023-03-15T04:43:54.600Z,98966.91
2023-03-15T04:46:15.549Z,98982.16
2023-03-15T04:48:36.980Z,99015.22
2023-03-15T04:50:42.380Z,99036.00
2023-03-15T04:53:07.660Z,98938.44
2023-03-15T05:00:39.479Z,98978.44
2023-03-15T05:03:12.613Z,99012.59
2023-03-15T05:05:38.202Z,98992.44
2023-03-15T05:07:55.770Z,98961.50
2023-03-15T05:10:07.561Z,99005.41
2023-03-15T05:12:20.678Z,98973.06
2023-03-15T05:14:41.816Z,99026.19
2023-03-15T05:17:10.549Z,98995.91
2023-03-15T05:19:46.771Z,99010.34
2023-03-15T05:22:15.015Z,99013.31
2023-03-15T05:24:47.238Z,98997.38
2023-03-15T05:27:13.943Z,99029.19
2023-03-15T05:29:18.603Z,98995.38
2023-03-15T05:31:52.650Z,99033.91
2023-03-15T05:34:04.896Z,98957.28
2023-03-15T05:36:18.717Z,98995.19
2023-03-15T05:38:43.978Z,99003.13
2023-03-15T05:41:18.387Z,99022.44
2023-03-15T05:43:21.117Z,99025.09
2023-03-15T05:45:54.285Z,99073.13
2023-03-15T05:48:02.620Z,99031.44
2023-03-15T05:50:20.977Z,99073.66
2023-03-15T05:55:19.214Z,99071.13
2023-03-15T05:57:32.408Z,99055.81
2023-03-15T05:59:52.677Z,99065.94
2023-03-15T06:02:19.024Z,99089.44
2023-03-15T06:04:34.950Z,99116.06
2023-03-15T06:06:38.421Z,99055.16
2023-03-15T06:08:43.150Z,99108.59
2023-03-15T06:10:46.129Z,99107.03
2023-03-15T06:12:48.699Z,99112.69
2023-03-15T06:14:52.614Z,99102.66
2023-03-15T06:16:55.691Z,99151.81
2023-03-15T06:18:59.457Z,99138.50
2023-03-15T06:21:01.748Z,99132.38
2023-03-15T06:23:04.174Z,99163.75
2023-03-15T06:25:15.162Z,99123.19
2023-03-15T06:27:22.541Z,99132.84
2023-03-15T06:29:27.784Z,99152.34
2023-03-15T06:31:32.502Z,99157.09
2023-03-15T06:33:40.923Z,99181.75
2023-03-15T06:35:47.135Z,99133.09
2023-03-15T06:37:50.461Z,99199.50
2023-03-15T06:39:54.008Z,99143.31
2023-03-15T06:41:58.806Z,99163.19
2023-03-15T06:44:03.627Z,99158.06
2023-03-15T06:46:05.966Z,99131.78
2023-03-15T06:48:09.078Z,99171.63
2023-03-15T06:50:11.973Z,99189.56
2023-03-15T06:52:14.314Z,99166.66
2023-03-15T06:54:16.825Z,99192.94
2023-03-15T06:56:19.940Z,99195.84
2023-03-15T06:58:22.803Z,99216.53
2023-03-15T07:00:25.423Z,99197.66
2023-03-15T07:02:28.197Z,99230.69
2023-03-15T07:04:32.085Z,99245.47
2023-03-15T07:06:34.761Z,99232.13
2023-03-15T07:08:37.400Z,99218.81
2023-03-15T07:10:39.915Z,99178.19
2023-03-15T07:12:42.462Z,99221.00
2023-03-15T07:14:46.919Z,99213.66
2023-03-15T07:16:49.736Z,99256.22
2023-03-15T07:18:56.058Z,99174.97
2023-03-15T07:20:59.809Z,99257.16
2023-03-15T07:23:02.490Z,99163.63
2023-03-15T07:25:07.989Z,99228.34
2023-03-15T07:27:15.681Z,99246.50
2023-03-15T07:29:19.011Z,99244.88
2023-03-15T07:31:21.559Z,99226.28
2023-03-15T07:33:25.572Z,99213.44
2023-03-15T07:35:28.161Z,99205.25
2023-03-15T07:37:30.780Z,99249.66
2023-03-15T07:39:33.037Z,99220.34
2023-03-15T07:41:35.287Z,99238.19
2023-03-15T07:44:05.213Z,99295.25
2023-03-15T07:46:08.289Z,99243.31
2023-03-15T07:48:11.379Z,99265.09
2023-03-15T07:50:16.900Z,99285.50
2023-03-15T07:52:21.639Z,99244.97
2023-03-15T07:54:24.015Z,99307.16
2023-03-15T07:56:26.509Z,99281.91
2023-03-15T07:58:29.117Z,99266.63
2023-03-15T08:00:31.761Z,99273.66
2023-03-15T08:02:34.136Z,99279.75
2023-03-15T08:04:37.076Z,99280.78
2023-03-15T08:06:39.415Z,99304.47
2023-03-15T08:08:42.514Z,99296.69
2023-03-15T08:10:45.754Z,99323.34
2023-03-15T08:12:49.176Z,99283.75
2023-03-15T08:14:51.920Z,99255.31
2023-03-15T08:16:54.477Z,99299.75
2023-03-15T08:18:57.328Z,99243.63
2023-03-15T08:21:00.132Z,99293.09
2023-03-15T08:23:02.999Z,99304.69
2023-03-15T08:25:06.542Z,99300.59
2023-03-15T08:27:09.723Z,99322.13
2023-03-15T08:29:12.510Z,99308.78
2023-03-15T08:31:15.291Z,99307.91
2023-03-15T08:33:17.978Z,99339.00
2023-03-15T08:35:22.779Z,99332.22
2023-03-15T08:37:25.650Z,99303.59
2023-03-15T08:39:28.459Z,99325.41
2023-03-15T08:41:30.748Z,99308.66
2023-03-15T08:43:33.593Z,99262.81
2023-03-15T08:45:56.611Z,99313.13
2023-03-15T08:48:01.119Z,99323.38
2023-03-15T08:50:12.025Z,99323.53
2023-03-15T08:52:15.672Z,99280.66
2023-03-15T08:54:19.318Z,99335.81
2023-03-15T08:56:21.850Z,99321.66
2023-03-15T08:58:24.418Z,99317.00
2023-03-15T09:00:27.479Z,99279.97
2023-03-15T09:02:30.133Z,99318.13
2023-03-15T09:04:33.988Z,99347.91
2023-03-15T09:06:36.305Z,99322.03
2023-03-15T09:08:38.993Z,99356.25
2023-03-15T09:10:41.856Z,99340.25
2023-03-15T09:12:50.438Z,99345.97
2023-03-15T09:14:52.928Z,99305.56
2023-03-15T09:16:55.593Z,99322.31
2023-03-15T09:18:58.335Z,99335.97
2023-03-15T09:21:02.078Z,99310.31
2023-03-15T09:23:04.457Z,99359.22
2023-03-15T09:25:11.216Z,99336.47
2023-03-15T09:27:13.665Z,99321.91
2023-03-15T09:29:16.173Z,99328.34
2023-03-15T09:31:18.577Z,99351.69
2023-03-15T09:33:22.837Z,99399.03
2023-03-15T09:35:25.111Z,99406.72
2023-03-15T09:37:29.007Z,99371.84
2023-03-15T09:39:34.134Z,99359.00
2023-03-15T09:41:51.138Z,99400.47
2023-03-15T09:44:33.684Z,99381.38
2023-03-15T09:46:43.465Z,99359.22
2023-03-15T09:48:56.950Z,99359.09
2023-03-15T09:51:06.754Z,99398.09
2023-03-15T09:53:33.324Z,99371.66
2023-03-15T09:55:36.042Z,99379.22
2023-03-15T09:57:48.874Z,99374.44
2023-03-15T09:59:54.698Z,99340.09
2023-03-15T10:01:59.726Z,99338.81
2023-03-15T10:04:17.069Z,99359.81
2023-03-15T10:06:26.984Z,99353.34
2023-03-15T10:08:30.176Z,99363.16
2023-03-15T10:10:39.211Z,99387.06
2023-03-15T10:12:51.923Z,99359.72
2023-03-15T10:15:31.239Z,99405.88
2023-03-15T10:17:44.897Z,99371.75
2023-03-15T10:19:47.606Z,99406.72
2023-03-15T10:22:01.933Z,99415.19
2023-03-15T10:24:13.278Z,99398.59
2023-03-15T10:26:23.299Z,99368.25
2023-03-15T10:28:31.330Z,99423.00
2023-03-15T10:30:38.782Z,99380.44
2023-03-15T10:32:46.438Z,99365.13
2023-03-15T10:34:56.368Z,99380.31
2023-03-15T10:36:59.005Z,99360.53
2023-03-15T10:39:01.558Z,99376.38
2023-03-15T10:41:07.258Z,99381.78
2023-03-15T10:43:24.384Z,99354.03
2023-03-15T10:45:28.635Z,99365.63
2023-03-15T10:47:32.332Z,99417.09
2023-03-15T10:49:40.572Z,99374.31
2023-03-15T10:51:48.942Z,99385.78
2023-03-15T10:53:59.096Z,99389.41
2023-03-15T10:56:08.270Z,99420.69
2023-03-15T10:58:39.483Z,99362.88
2023-03-15T11:00:51.046Z,99393.94
2023-03-15T11:03:16.407Z,99353.63
2023-03-15T11:05:20.220Z,99371.66
2023-03-15T11:07:22.949Z,99382.47
2023-03-15T11:09:27.501Z,99384.09
2023-03-15T11:11:31.540Z,99332.19
2023-03-15T11:13:36.560Z,99367.00
2023-03-15T11:15:41.842Z,99363.97
2023-03-15T11:17:47.944Z,99367.75
2023-03-15T11:19:59.743Z,99419.03
2023-03-15T11:22:03.073Z,99366.53
2023-03-15T11:24:07.393Z,99358.00
2023-03-15T11:26:32.266Z,99372.00
2023-03-15T11:28:38.186Z,99384.28
2023-03-15T11:30:41.910Z,99410.28
2023-03-15T11:32:46.924Z,99401.28
2023-03-15T11:35:30.926Z,99424.25
2023-03-15T11:37:41.925Z,99360.28
2023-03-15T11:39:53.746Z,99372.00
2023-03-15T11:42:12.234Z,99389.09
2023-03-15T11:44:14.724Z,99419.09
2023-03-15T11:46:32.495Z,99374.97
2023-03-15T11:49:25.785Z,99418.09
2023-03-15T11:51:33.478Z,99394.81
2023-03-15T11:53:41.993Z,99390.59
2023-03-15T11:55:49.994Z,99407.03
2023-03-15T11:57:53.759Z,99418.63
2023-03-15T11:59:57.918Z,99379.16
2023-03-15T12:02:24.435Z,99371.66
2023-03-15T12:04:39.582Z,99388.13
2023-03-15T12:06:44.646Z,99428.75
2023-03-15T12:08:56.433Z,99392.59
2023-03-15T12:11:03.216Z,99409.34
2023-03-15T12:13:23.688Z,99423.84
2023-03-15T12:15:29.156Z,99430.16
2023-03-15T12:17:36.365Z,99432.16
2023-03-15T12:19:40.977Z,99333.16
2023-03-15T12:22:01.522Z,99395.16
2023-03-15T12:24:15.646Z,99379.84
2023-03-15T12:26:40.092Z,99375.63
2023-03-15T12:28:53.054Z,99359.69
2023-03-15T12:30:57.415Z,99422.09
2023-03-15T12:33:02.902Z,99404.91
2023-03-15T12:35:15.497Z,99379.38
2023-03-15T12:37:23.870Z,99410.03
2023-03-15T12:39:42.974Z,99386.34
2023-03-15T12:41:47.244Z,99395.00
2023-03-15T12:43:52.675Z,99364.63
2023-03-15T12:45:55.283Z,99386.88
2023-03-15T12:47:57.563Z,99428.69
2023-03-15T12:50:34.927Z,99328.22
2023-03-15T12:52:43.719Z,99391.81
2023-03-15T12:55:09.286Z,99430.94
2023-03-15T12:57:15.532Z,99373.03
2023-03-15T12:59:29.447Z,99388.53
2023-03-15T13:01:33.860Z,99393.44
2023-03-15T13:03:37.145Z,99379.16
2023-03-15T13:06:02.791Z,99443.91
2023-03-15T13:08:18.187Z,99449.53
2023-03-15T13:10:31.412Z,99407.75
2023-03-15T13:12:43.008Z,99456.78
2023-03-15T13:15:34.124Z,99373.03
2023-03-15T13:17:36.927Z,99460.66
2023-03-15T13:19:45.512Z,99402.19
2023-03-15T13:22:16.466Z,99415.66
2023-03-15T13:24:29.878Z,99396.00
2023-03-15T13:26:53.939Z,99462.09
2023-03-15T13:29:11.978Z,99416.38
2023-03-15T13:31:24.199Z,99390.63
2023-03-15T13:33:32.031Z,99386.50
2023-03-15T13:35:43.178Z,99439.13
2023-03-15T13:37:46.143Z,99448.94
2023-03-15T13:39:54.372Z,99467.69
2023-03-15T13:42:17.572Z,99449.66
2023-03-15T13:44:24.236Z,99442.75
2023-03-15T13:46:30.438Z,99443.13
2023-03-15T13:48:40.372Z,99379.28
2023-03-15T13:50:48.704Z,99443.31
2023-03-15T13:52:51.441Z,99423.19
2023-03-15T13:54:54.568Z,99428.19
2023-03-15T13:57:17.789Z,99424.34
2023-03-15T13:59:20.250Z,99425.78
2023-03-15T14:01:23.968Z,99472.97
2023-03-15T14:03:28.521Z,99417.81
2023-03-15T14:05:36.770Z,99434.09
2023-03-15T14:07:42.533Z,99448.81
2023-03-15T14:09:45.035Z,99439.25
2023-03-15T14:12:02.143Z,99448.00
2023-03-15T14:14:24.720Z,99401.63
2023-03-15T14:17:03.601Z,99477.41
2023-03-15T14:19:26.037Z,99413.38
2023-03-15T14:21:32.716Z,99471.22
2023-03-15T14:23:42.706Z,99440.28
2023-03-15T14:25:52.422Z,99437.47
2023-03-15T14:27:55.049Z,99440.03
2023-03-15T14:30:00.603Z,99431.88
2023-03-15T14:32:08.920Z,99455.16
2023-03-15T14:34:47.689Z,99480.81
2023-03-15T14:36:53.237Z,99450.13
2023-03-15T14:39:00.209Z,99437.72
2023-03-15T14:41:27.694Z,99476.34
2023-03-15T14:43:33.137Z,99428.09
2023-03-15T14:45:39.896Z,99411.81
2023-03-15T14:47:56.776Z,99440.28
2023-03-15T14:50:00.166Z,99431.84
2023-03-15T14:52:05.511Z,99441.00
2023-03-15T14:54:13.541Z,99429.03
2023-03-15T14:56:16.520Z,99449.41
2023-03-15T14:58:22.502Z,99438.88
2023-03-15T15:00:25.237Z,99451.78
2023-03-15T15:02:28.676Z,99430.69
2023-03-15T15:04:34.730Z,99424.00
2023-03-15T15:06:38.147Z,99458.28
2023-03-15T15:08:45.659Z,99466.81
2023-03-15T15:10:50.369Z,99426.56
2023-03-15T15:13:04.891Z,99403.03
2023-03-15T15:15:20.038Z,99425.72
2023-03-15T15:17:22.512Z,99420.47
2023-03-15T15:19:24.888Z,99395.66
2023-03-15T15:21:33.741Z,99473.25
2023-03-15T15:23:54.797Z,99470.94
2023-03-15T15:26:03.100Z,99452.69
2023-03-15T15:28:05.839Z,99451.16
2023-03-15T15:30:16.407Z,99426.00
2023-03-15T15:32:19.342Z,99463.00
2023-03-15T15:34:21.790Z,99385.94
2023-03-15T15:36:29.901Z,99462.09
2023-03-15T15:38:40.322Z,99419.91
2023-03-15T15:40:42.948Z,99420.25
2023-03-15T15:42:46.803Z,99476.25
2023-03-15T15:44:49.259Z,99467.91
2023-03-15T15:46:52.890Z,99476.72
2023-03-15T15:48:55.617Z,99504.47
2023-03-15T15:50:58.249Z,99447.59
2023-03-15T15:53:04.637Z,99459.31
2023-03-15T15:55:15.411Z,99477.22
2023-03-15T15:57:22.713Z,99463.72
2023-03-15T15:59:28.359Z,99469.00
2023-03-15T16:01:31.928Z,99482.34
2023-03-15T16:03:34.598Z,99454.88
2023-03-15T16:05:36.998Z,99400.03
2023-03-15T16:07:40.509Z,99486.53
2023-03-15T16:09:45.702Z,99451.13
2023-03-15T16:11:48.890Z,99446.75
2023-03-15T16:13:56.397Z,99487.44
2023-03-15T16:15:59.397Z,99478.75
2023-03-15T16:18:02.428Z,99462.75
2023-03-15T16:20:09.816Z,99479.78
2023-03-15T16:22:13.098Z,99505.19
2023-03-15T16:24:21.567Z,99493.75
2023-03-15T16:26:24.019Z,99476.41
2023-03-15T16:28:26.752Z,99454.63
2023-03-15T16:30:32.916Z,99503.88
2023-03-15T16:32:43.806Z,99454.56
2023-03-15T16:34:48.740Z,99437.03
2023-03-15T16:36:55.140Z,99533.19
2023-03-15T16:38:57.635Z,99456.63
2023-03-15T16:41:00.990Z,99519.78
2023-03-15T16:43:06.455Z,99486.63
2023-03-15T16:45:14.870Z,99492.88
2023-03-15T16:47:17.600Z,99491.13
2023-03-15T16:49:20.317Z,99513.94
2023-03-15T16:51:24.011Z,99531.19
2023-03-15T16:53:26.894Z,99544.44
2023-03-15T16:55:34.388Z,99480.44
2023-03-15T16:57:36.845Z,99516.81
2023-03-15T16:59:39.179Z,99523.16
2023-03-15T17:01:42.776Z,99521.63
2023-03-15T17:03:45.601Z,99478.91
2023-03-15T17:05:48.791Z,99492.84
2023-03-15T17:07:53.850Z,99520.09
2023-03-15T17:09:56.934Z,99544.81
2023-03-15T17:11:59.318Z,99536.56
2023-03-15T17:14:02.193Z,99538.59
2023-03-15T17:16:04.756Z,99508.03
2023-03-15T17:18:17.017Z,99530.06
2023-03-15T17:20:22.932Z,99554.19
2023-03-15T17:22:26.745Z,99558.06
2023-03-15T17:24:29.524Z,99540.44
2023-03-15T17:26:32.750Z,99534.22
2023-03-15T17:28:35.009Z,99588.09
2023-03-15T17:30:38.012Z,99569.44
2023-03-15T17:32:40.626Z,99575.47
2023-03-15T17:34:47.413Z,99600.00
2023-03-15T17:36:50.319Z,99556.50
2023-03-15T17:38:55.183Z,99580.66
2023-03-15T17:40:58.516Z,99586.88
2023-03-15T17:43:03.969Z,99551.72
2023-03-15T17:45:21.809Z,99574.41
2023-03-15T17:47:24.433Z,99589.59
2023-03-15T17:49:26.972Z,99576.03
2023-03-15T17:51:32.450Z,99538.06
2023-03-15T17:53:35.151Z,99588.84
2023-03-15T17:55:37.980Z,99608.97
2023-03-15T17:57:42.970Z,99589.47
2023-03-15T17:59:48.422Z,99546.91
2023-03-15T18:01:51.629Z,99607.31
2023-03-15T18:03:55.819Z,99633.28
2023-03-15T18:06:02.012Z,99562.44
2023-03-15T18:08:05.126Z,99601.75
2023-03-15T18:10:08.643Z,99574.75
2023-03-15T18:12:13.707Z,99585.28
2023-03-15T18:14:19.204Z,99557.25
2023-03-15T18:16:22.412Z,99616.19
2023-03-15T18:18:25.314Z,99613.78
2023-03-15T18:20:29.114Z,99599.47
2023-03-15T18:22:31.715Z,99649.44
2023-03-15T18:24:34.838Z,99599.50
2023-03-15T18:26:37.442Z,99596.78
2023-03-15T18:28:41.171Z,99614.19
2023-03-15T18:30:45.200Z,99541.25
2023-03-15T18:32:47.934Z,99599.19
2023-03-15T18:34:51.544Z,99580.41
2023-03-15T18:36:54.109Z,99587.31
2023-03-15T18:38:57.474Z,99664.16
2023-03-15T18:41:01.553Z,99646.75
2023-03-15T18:43:05.877Z,99613.03
2023-03-15T18:45:18.794Z,99583.34
2023-03-15T18:47:21.444Z,99607.69
2023-03-15T18:49:24.199Z,99621.13
2023-03-15T18:51:28.739Z,99640.50
2023-03-15T18:53:31.598Z,99619.94
2023-03-15T18:55:35.274Z,99679.59
2023-03-15T18:57:41.850Z,99639.41
2023-03-15T18:59:44.445Z,99621.28
2023-03-15T19:01:47.112Z,99607.88
2023-03-15T19:03:50.864Z,99646.31
2023-03-15T19:05:54.113Z,99661.97
2023-03-15T19:07:57.231Z,99583.03
2023-03-15T19:10:00.068Z,99650.81
2023-03-15T19:12:06.099Z,99696.59
2023-03-15T19:14:10.229Z,99669.53
2023-03-15T19:16:12.626Z,99657.66
2023-03-15T19:18:15.462Z,99682.53
2023-03-15T19:20:21.975Z,99649.69
2023-03-15T19:22:24.598Z,99616.91
2023-03-15T19:24:28.610Z,99630.34
2023-03-15T19:26:31.242Z,99683.53
2023-03-15T19:28:34.237Z,99706.00
2023-03-15T19:30:37.245Z,99692.41
2023-03-15T19:32:43.105Z,99655.13
2023-03-15T19:34:45.772Z,99710.81
2023-03-15T19:36:48.641Z,99677.94
2023-03-15T19:38:51.242Z,99617.59
2023-03-15T19:40:57.224Z,99699.41
2023-03-15T19:43:00.289Z,99705.63
2023-03-15T19:45:03.750Z,99717.72
2023-03-15T19:47:07.140Z,99652.19
2023-03-15T19:49:09.750Z,99672.75
2023-03-15T19:51:12.582Z,99701.19
2023-03-15T19:53:15.077Z,99658.59
2023-03-15T19:55:21.470Z,99705.91
2023-03-15T19:57:24.328Z,99659.31
2023-03-15T19:59:27.833Z,99724.03
2023-03-15T20:01:30.543Z,99714.38
2023-03-15T20:03:36.036Z,99680.84
2023-03-15T20:05:39.083Z,99733.41
2023-03-15T20:07:43.647Z,99766.63
2023-03-15T20:09:46.332Z,99703.91
2023-03-15T20:11:49.793Z,99717.63
2023-03-15T20:13:53.422Z,99768.19
2023-03-15T20:15:56.274Z,99737.19
2023-03-15T20:17:59.043Z,99738.59
2023-03-15T20:20:02.014Z,99704.25
2023-03-15T20:22:05.265Z,99724.50
2023-03-15T20:24:09.250Z,99747.78
2023-03-15T20:26:14.637Z,99767.97
2023-03-15T20:28:18.418Z,99745.13
2023-03-15T20:30:21.671Z,99773.75
2023-03-15T20:32:24.543Z,99714.28
2023-03-15T20:34:27.166Z,99726.22
2023-03-15T20:36:31.166Z,99747.09
2023-03-15T20:38:37.742Z,99779.47
2023-03-15T20:40:40.903Z,99777.09
2023-03-15T20:42:44.364Z,99764.94
2023-03-15T20:44:47.186Z,99758.31
2023-03-15T20:46:52.974Z,99803.06
2023-03-15T20:48:55.863Z,99776.91
2023-03-15T20:50:58.608Z,99754.69
2023-03-15T20:53:04.011Z,99824.34
2023-03-15T20:55:08.248Z,99716.72
2023-03-15T20:57:11.631Z,99752.47
2023-03-15T20:59:14.766Z,99763.25
2023-03-15T21:01:17.793Z,99822.97
2023-03-15T21:03:20.453Z,99763.38
2023-03-15T21:05:24.686Z,99735.88
2023-03-15T21:07:27.302Z,99753.25
2023-03-15T21:09:32.112Z,99746.69
2023-03-15T21:11:34.621Z,99787.31
2023-03-15T21:13:37.328Z,99765.09
2023-03-15T21:15:47.332Z,99796.44
2023-03-15T21:17:50.347Z,99813.34
2023-03-15T21:19:53.815Z,99748.78
2023-03-15T21:21:57.620Z,99783.00
2023-03-15T21:24:02.684Z,99793.25
2023-03-15T21:26:08.870Z,99745.09
2023-03-15T21:28:12.141Z,99796.03
2023-03-15T21:30:14.869Z,99793.72
2023-03-15T21:32:17.244Z,99795.63
2023-03-15T21:34:20.161Z,99855.00
2023-03-15T21:36:22.922Z,99811.19
2023-03-15T21:38:27.005Z,99804.47
2023-03-15T21:40:29.741Z,99769.72
2023-03-15T21:42:33.819Z,99771.50
2023-03-15T21:44:37.848Z,99870.22
2023-03-15T21:46:40.532Z,99843.03
2023-03-15T21:48:42.807Z,99766.94
2023-03-15T21:50:45.673Z,99791.09
2023-03-15T21:52:48.460Z,99844.25
2023-03-15T21:54:50.858Z,99828.59
2023-03-15T21:56:53.618Z,99758.28
2023-03-15T21:58:56.201Z,99775.25
2023-03-15T22:01:05.287Z,99848.22
2023-03-15T22:03:07.768Z,99846.19
2023-03-15T22:05:13.988Z,99803.03
2023-03-15T22:07:16.497Z,99809.94
2023-03-15T22:09:20.337Z,99860.00
2023-03-15T22:11:23.123Z,99834.31
2023-03-15T22:13:26.775Z,99778.06
2023-03-15T22:15:29.436Z,99876.72
2023-03-15T22:17:32.131Z,99839.50
2023-03-15T22:19:34.450Z,99820.53
2023-03-15T22:21:36.788Z,99834.66
2023-03-15T22:23:39.169Z,99845.66
2023-03-15T22:25:41.633Z,99819.19
2023-03-15T22:27:44.175Z,99874.13
2023-03-15T22:29:46.458Z,99854.28
2023-03-15T22:31:48.797Z,99883.47
2023-03-15T22:33:51.602Z,99855.31
2023-03-15T22:35:58.514Z,99904.13
2023-03-15T22:38:00.958Z,99865.34
2023-03-15T22:40:05.444Z,99840.66
2023-03-15T22:42:07.958Z,99868.81
2023-03-15T22:44:10.446Z,99923.03
2023-03-15T22:46:13.192Z,99889.97
2023-03-15T22:48:15.666Z,99850.88
2023-03-15T22:50:18.029Z,99829.41
2023-03-15T22:52:20.726Z,99869.16
2023-03-15T22:54:22.881Z,99872.75
2023-03-15T22:56:25.458Z,99851.91
2023-03-15T22:58:27.854Z,99866.88
2023-03-15T23:00:30.721Z,99854.50
2023-03-15T23:02:33.279Z,99889.47
2023-03-15T23:04:36.209Z,99866.25
2023-03-15T23:06:38.471Z,99901.94
2023-03-15T23:08:43.091Z,99878.59
2023-03-15T23:10:45.657Z,99880.41
2023-03-15T23:12:47.958Z,99892.78
2023-03-15T23:14:50.515Z,99895.41
2023-03-15T23:16:52.714Z,99914.38
2023-03-15T23:18:55.332Z,99911.31
2023-03-15T23:21:06.339Z,99874.75
2023-03-15T23:23:09.120Z,99929.63
2023-03-15T23:25:13.278Z,99872.47
2023-03-15T23:27:15.843Z,99941.16
2023-03-15T23:29:18.377Z,99892.22
2023-03-15T23:31:21.189Z,99928.88
2023-03-15T23:33:26.072Z,99940.31
2023-03-15T23:35:30.038Z,99899.56
2023-03-15T23:37:33.167Z,99938.63
2023-03-15T23:39:37.388Z,99912.03
2023-03-15T23:41:39.814Z,99878.84
2023-03-15T23:43:42.170Z,99877.97
2023-03-15T23:45:44.605Z,99929.41
2023-03-15T23:47:47.010Z,99915.31
2023-03-15T23:49:51.484Z,99834.88
2023-03-15T23:51:57.436Z,99934.31
2023-03-15T23:54:01.005Z,99963.38
2023-03-15T23:56:03.439Z,99921.88
2023-03-15T23:58:07.701Z,99898.78
